Time;durP1;ratioP1;P1;durP2;ratioP2;P2;SDS_P1;SDS_P2;PMS_P1;PMS_P2;Temp;Humidity;BMP_temperature;BMP_pressure;BME280_temperature;BME280_humidity;BME280_pressure;Samples;Min_cycle;Max_cycle;Signal;HPM_P1;HPM_P2
2021/08/30 00:01:17;;;;;;;11.65;10.63;;;;;;;;;;5074805;28;20048;-82
2021/08/30 00:03:44;;;;;;;12.18;11.00;;;;;;;;;;5074224;28;20091;-82
2021/08/30 00:06:10;;;;;;;13.02;11.68;;;;;;;;;;5075203;28;20127;-82
2021/08/30 00:08:36;;;;;;;11.90;10.65;;;;;;;;;;5074312;28;20458;-82
2021/08/30 00:11:03;;;;;;;11.82;10.73;;;;;;;;;;5074637;28;20474;-81
2021/08/30 00:13:29;;;;;;;12.45;11.13;;;;;;;;;;5074386;28;20021;-83
2021/08/30 00:15:56;;;;;;;11.73;10.63;;;;;;;;;;5074427;28;20032;-82
2021/08/30 00:18:23;;;;;;;11.65;10.65;;;;;;;;;;5074211;28;20029;-82
2021/08/30 00:20:49;;;;;;;10.98;10.00;;;;;;;;;;5074825;28;20533;-82
2021/08/30 00:23:15;;;;;;;11.63;10.45;;;;;;;;;;5074305;28;20024;-82
2021/08/30 00:25:41;;;;;;;12.77;11.57;;;;;;;;;;5074024;28;20119;-82
2021/08/30 00:28:07;;;;;;;11.75;10.55;;;;;;;;;;5074418;28;20028;-81
2021/08/30 00:30:33;;;;;;;12.40;11.30;;;;;;;;;;5074156;28;20025;-82
2021/08/30 00:33:00;;;;;;;11.88;10.88;;;;;;;;;;5074009;28;20060;-82
2021/08/30 00:35:26;;;;;;;11.20;10.10;;;;;;;;;;5073958;28;20028;-83
2021/08/30 00:37:52;;;;;;;10.43;9.52;;;;;;;;;;5074394;28;20111;-82
2021/08/30 00:40:18;;;;;;;12.55;11.13;;;;;;;;;;5072077;28;20066;-81
2021/08/30 00:42:44;;;;;;;10.45;9.57;;;;;;;;;;5074433;28;20029;-82
2021/08/30 00:45:11;;;;;;;10.73;9.82;;;;;;;;;;5074034;28;20111;-81
2021/08/30 00:47:38;;;;;;;10.73;9.82;;;;;;;;;;5073533;28;20032;-82
2021/08/30 00:50:05;;;;;;;11.38;10.35;;;;;;;;;;5074219;28;20099;-82
2021/08/30 00:52:31;;;;;;;13.02;10.63;;;;;;;;;;5074098;28;20107;-82
2021/08/30 00:54:57;;;;;;;12.48;11.32;;;;;;;;;;5074378;28;20032;-81
2021/08/30 00:57:23;;;;;;;15.30;11.52;;;;;;;;;;5073842;28;20048;-82
2021/08/30 00:59:49;;;;;;;11.88;10.77;;;;;;;;;;5074115;28;20028;-82
2021/08/30 01:02:15;;;;;;;11.82;10.80;;;;;;;;;;5073651;28;20500;-81
2021/08/30 01:04:41;;;;;;;11.77;10.73;;;;;;;;;;5073951;28;20405;-82
2021/08/30 01:07:12;;;;;;;11.10;10.10;;;;;;;;;;5074479;28;20408;-82
2021/08/30 01:09:58;;;;;;;11.20;10.10;;;;;;;;;;5073860;28;20083;-82
2021/08/30 01:12:29;;;;;;;12.00;10.95;;;;;;;;;;5059173;28;20024;-81
2021/08/30 01:14:58;;;;;;;10.70;9.80;;;;;;;;;;5074105;28;20032;-82
2021/08/30 01:17:24;;;;;;;12.50;11.25;;;;;;;;;;5073939;28;20107;-82
2021/08/30 01:20:10;;;;;;;13.73;10.80;;;;;;;;;;5075429;28;20021;-80
2021/08/30 01:22:38;;;;;;;12.30;11.20;;;;;;;;;;5063342;28;20021;-82
2021/08/30 01:25:05;;;;;;;12.15;11.15;;;;;;;;;;5077641;28;20024;-81
2021/08/30 01:27:31;;;;;;;11.93;10.73;;;;;;;;;;5077596;28;20029;-82
2021/08/30 01:29:59;;;;;;;10.77;9.77;;;;;;;;;;5077843;28;20101;-82
2021/08/30 01:32:41;;;;;;;10.85;9.85;;;;;;;;;;5078105;28;20021;-81
2021/08/30 01:35:09;;;;;;;11.20;10.25;;;;;;;;;;5077533;28;20469;-81
2021/08/30 01:37:36;;;;;;;11.50;10.50;;;;;;;;;;5077109;28;20124;-81
2021/08/30 01:40:03;;;;;;;11.18;10.18;;;;;;;;;;5077569;28;20031;-82
2021/08/30 01:42:29;;;;;;;12.05;10.95;;;;;;;;;;5077879;28;20032;-81
2021/08/30 01:44:55;;;;;;;12.88;11.77;;;;;;;;;;5077603;28;20509;-82
2021/08/30 01:47:21;;;;;;;11.88;10.85;;;;;;;;;;5077492;28;20036;-83
2021/08/30 01:49:59;;;;;;;11.18;10.10;;;;;;;;;;5077066;28;20032;-81
2021/08/30 01:52:25;;;;;;;12.60;11.50;;;;;;;;;;5077191;28;20036;-82
2021/08/30 01:54:52;;;;;;;11.35;10.35;;;;;;;;;;5076995;28;20060;-81
2021/08/30 01:57:20;;;;;;;12.70;11.63;;;;;;;;;;5077106;28;20060;-80
2021/08/30 02:02:33;;;;;;;12.35;11.25;;;;;;;;;;5075879;28;20028;-79
2021/08/30 02:04:59;;;;;;;11.32;10.32;;;;;;;;;;5076588;28;20035;-81
2021/08/30 02:07:25;;;;;;;12.27;11.15;;;;;;;;;;5076642;28;20055;-81
2021/08/30 02:09:51;;;;;;;12.13;11.13;;;;;;;;;;5077141;28;20103;-80
2021/08/30 02:12:17;;;;;;;12.07;11.07;;;;;;;;;;5076507;28;20103;-81
2021/08/30 02:14:43;;;;;;;12.90;11.60;;;;;;;;;;5076557;28;20024;-80
2021/08/30 02:17:10;;;;;;;12.48;11.38;;;;;;;;;;5076429;28;20508;-80
2021/08/30 02:19:41;;;;;;;12.35;11.27;;;;;;;;;;5076289;28;20029;-80
2021/08/30 02:22:11;;;;;;;12.13;11.02;;;;;;;;;;5077151;28;20046;-80
2021/08/30 02:24:42;;;;;;;11.88;10.82;;;;;;;;;;5076958;28;20028;-80
2021/08/30 02:27:10;;;;;;;11.80;10.60;;;;;;;;;;5076714;28;20028;-80
2021/08/30 02:29:41;;;;;;;12.45;11.32;;;;;;;;;;5075956;28;20036;-81
2021/08/30 02:32:07;;;;;;;11.73;10.80;;;;;;;;;;5075884;28;20028;-80
2021/08/30 02:34:34;;;;;;;12.77;11.43;;;;;;;;;;5076810;28;20024;-80
2021/08/30 02:37:00;;;;;;;11.93;10.93;;;;;;;;;;5076327;28;20021;-80
2021/08/30 02:39:27;;;;;;;12.80;11.70;;;;;;;;;;5076004;28;20025;-81
2021/08/30 02:41:53;;;;;;;12.90;11.90;;;;;;;;;;5076312;28;20025;-80
2021/08/30 02:44:19;;;;;;;12.80;11.60;;;;;;;;;;5075947;28;20032;-80
2021/08/30 02:46:45;;;;;;;12.88;11.57;;;;;;;;;;5075865;28;20390;-80
2021/08/30 02:49:11;;;;;;;11.52;10.57;;;;;;;;;;5076124;28;20533;-80
2021/08/30 02:51:38;;;;;;;13.10;11.80;;;;;;;;;;5075668;28;20115;-80
2021/08/30 02:54:04;;;;;;;11.00;10.00;;;;;;;;;;5073423;28;20044;-79
2021/08/30 02:56:30;;;;;;;11.88;10.88;;;;;;;;;;5076099;28;20033;-80
2021/08/30 02:58:56;;;;;;;11.25;10.07;;;;;;;;;;5075561;28;20025;-80
2021/08/30 03:01:23;;;;;;;11.85;10.85;;;;;;;;;;5075057;28;20032;-81
2021/08/30 03:03:49;;;;;;;11.82;10.82;;;;;;;;;;5076191;28;20029;-80
2021/08/30 03:06:15;;;;;;;11.55;10.45;;;;;;;;;;5075285;28;20067;-80
2021/08/30 03:08:41;;;;;;;12.05;11.05;;;;;;;;;;5075631;28;20024;-80
2021/08/30 03:11:07;;;;;;;13.25;11.88;;;;;;;;;;5075539;28;20024;-80
2021/08/30 03:13:33;;;;;;;12.63;11.43;;;;;;;;;;5074991;28;20105;-80
2021/08/30 03:15:59;;;;;;;12.02;10.75;;;;;;;;;;5075054;28;20028;-80
2021/08/30 03:18:25;;;;;;;11.02;10.13;;;;;;;;;;5075668;28;20028;-80
2021/08/30 03:20:51;;;;;;;13.30;11.82;;;;;;;;;;5075045;28;20043;-80
2021/08/30 03:23:17;;;;;;;23.08;15.73;;;;;;;;;;5075260;28;20028;-80
2021/08/30 03:25:44;;;;;;;46.40;17.17;;;;;;;;;;5074960;28;20032;-81
2021/08/30 03:28:11;;;;;;;25.98;17.15;;;;;;;;;;5075492;28;20036;-81
2021/08/30 03:30:37;;;;;;;25.38;17.05;;;;;;;;;;5075066;28;20094;-81
2021/08/30 03:33:03;;;;;;;29.60;17.58;;;;;;;;;;5075300;28;20370;-81
2021/08/30 03:35:29;;;;;;;22.15;15.30;;;;;;;;;;5074833;28;20137;-81
2021/08/30 03:37:56;;;;;;;23.25;15.85;;;;;;;;;;5075631;28;20020;-81
2021/08/30 03:40:22;;;;;;;34.97;17.65;;;;;;;;;;5074673;28;20106;-81
2021/08/30 03:42:48;;;;;;;22.83;16.58;;;;;;;;;;5073490;28;20029;-81
2021/08/30 03:45:14;;;;;;;20.83;16.88;;;;;;;;;;5074470;28;20493;-81
2021/08/30 03:47:40;;;;;;;24.70;17.25;;;;;;;;;;5074779;28;20524;-81
2021/08/30 03:50:06;;;;;;;27.65;16.42;;;;;;;;;;5074686;28;20124;-80
2021/08/30 03:52:33;;;;;;;23.23;15.60;;;;;;;;;;5074774;28;20099;-80
2021/08/30 03:54:59;;;;;;;26.02;17.20;;;;;;;;;;5074936;28;20054;-80
2021/08/30 03:57:26;;;;;;;27.75;15.57;;;;;;;;;;5074251;28;20107;-81
2021/08/30 03:59:54;;;;;;;23.20;16.77;;;;;;;;;;5074574;28;20029;-80
2021/08/30 04:02:20;;;;;;;21.35;15.57;;;;;;;;;;5075121;28;20029;-81
2021/08/30 04:04:46;;;;;;;18.55;14.07;;;;;;;;;;5074976;28;20104;-81
2021/08/30 04:07:12;;;;;;;23.45;16.15;;;;;;;;;;5074664;28;20025;-80
2021/08/30 04:09:38;;;;;;;18.63;14.98;;;;;;;;;;5074261;28;20035;-81
2021/08/30 04:12:04;;;;;;;28.45;14.60;;;;;;;;;;5074202;28;20473;-80
2021/08/30 04:14:30;;;;;;;16.50;14.43;;;;;;;;;;5073909;28;20032;-81
2021/08/30 04:16:57;;;;;;;19.85;13.88;;;;;;;;;;5074826;28;20028;-81
2021/08/30 04:19:23;;;;;;;18.30;14.02;;;;;;;;;;5074084;28;20032;-82
2021/08/30 04:21:49;;;;;;;26.85;14.02;;;;;;;;;;5074436;28;20059;-81
2021/08/30 04:24:15;;;;;;;18.90;15.30;;;;;;;;;;5074085;28;20028;-81
2021/08/30 04:26:41;;;;;;;22.38;14.85;;;;;;;;;;5074255;28;20033;-81
2021/08/30 04:29:07;;;;;;;22.48;15.45;;;;;;;;;;5074212;28;20020;-81
2021/08/30 04:31:33;;;;;;;14.40;12.90;;;;;;;;;;5074030;28;20029;-81
2021/08/30 04:33:59;;;;;;;18.67;14.23;;;;;;;;;;5074176;28;20035;-80
2021/08/30 04:36:25;;;;;;;17.83;13.88;;;;;;;;;;5074224;28;20123;-81
2021/08/30 04:38:52;;;;;;;20.15;12.68;;;;;;;;;;5074494;28;20025;-81
2021/08/30 04:41:18;;;;;;;14.88;13.30;;;;;;;;;;5074175;28;20028;-80
2021/08/30 04:43:44;;;;;;;16.73;13.27;;;;;;;;;;5073711;28;20017;-81
2021/08/30 04:46:10;;;;;;;17.88;13.68;;;;;;;;;;5073865;28;20033;-80
2021/08/30 04:48:36;;;;;;;14.82;13.32;;;;;;;;;;5074510;28;20017;-81
2021/08/30 04:51:02;;;;;;;16.80;12.73;;;;;;;;;;5073944;28;20155;-80
2021/08/30 04:53:28;;;;;;;13.80;12.00;;;;;;;;;;5073442;28;20036;-81
2021/08/30 04:55:54;;;;;;;17.83;14.25;;;;;;;;;;5073568;28;20056;-80
2021/08/30 04:58:20;;;;;;;19.60;12.35;;;;;;;;;;5073527;28;20390;-81
2021/08/30 05:00:47;;;;;;;19.13;13.23;;;;;;;;;;5074080;28;20370;-81
2021/08/30 05:03:13;;;;;;;19.50;13.00;;;;;;;;;;5073905;28;20423;-81
2021/08/30 05:05:39;;;;;;;16.58;12.55;;;;;;;;;;5073623;28;20031;-81
2021/08/30 05:08:05;;;;;;;15.65;13.45;;;;;;;;;;5074236;28;20028;-81
2021/08/30 05:10:31;;;;;;;14.57;11.30;;;;;;;;;;5073874;28;20025;-80
2021/08/30 05:12:57;;;;;;;13.18;11.85;;;;;;;;;;5073225;28;20066;-81
2021/08/30 05:15:23;;;;;;;15.18;12.18;;;;;;;;;;5073580;28;20025;-81
2021/08/30 05:17:49;;;;;;;14.90;13.35;;;;;;;;;;5074392;28;20029;-81
2021/08/30 05:20:15;;;;;;;13.95;11.25;;;;;;;;;;5074047;28;20036;-81
2021/08/30 05:22:41;;;;;;;13.40;11.02;;;;;;;;;;5073431;28;20474;-81
2021/08/30 05:25:08;;;;;;;14.20;12.75;;;;;;;;;;5073729;28;20036;-81
2021/08/30 05:27:34;;;;;;;12.80;11.52;;;;;;;;;;5073111;28;20112;-81
2021/08/30 05:30:00;;;;;;;13.48;11.73;;;;;;;;;;5074170;28;20436;-82
2021/08/30 05:32:26;;;;;;;13.70;11.88;;;;;;;;;;5073734;28;20430;-80
2021/08/30 05:34:52;;;;;;;12.52;11.23;;;;;;;;;;5073463;28;20016;-82
2021/08/30 05:37:18;;;;;;;10.85;9.77;;;;;;;;;;5073878;28;20111;-80
2021/08/30 05:39:44;;;;;;;11.93;10.32;;;;;;;;;;5073420;28;20031;-82
2021/08/30 05:42:10;;;;;;;11.40;9.52;;;;;;;;;;5073190;28;20115;-82
2021/08/30 05:44:36;;;;;;;12.80;10.57;;;;;;;;;;5073107;28;20024;-80
2021/08/30 05:47:02;;;;;;;11.23;10.13;;;;;;;;;;5073391;28;20147;-82
2021/08/30 05:49:29;;;;;;;13.55;10.05;;;;;;;;;;5073029;28;20033;-87
2021/08/30 05:51:55;;;;;;;12.32;9.88;;;;;;;;;;5072334;28;20130;-81
2021/08/30 05:54:21;;;;;;;10.98;9.88;;;;;;;;;;5071634;28;20075;-80
2021/08/30 05:56:47;;;;;;;11.93;10.73;;;;;;;;;;5071930;28;20023;-81
2021/08/30 05:59:13;;;;;;;12.68;11.25;;;;;;;;;;5072290;28;20028;-85
2021/08/30 06:01:41;;;;;;;11.52;10.38;;;;;;;;;;5072038;28;20013;-79
2021/08/30 06:04:07;;;;;;;12.40;10.90;;;;;;;;;;5071927;28;20064;-79
2021/08/30 06:06:33;;;;;;;10.35;9.38;;;;;;;;;;5074171;28;20035;-76
2021/08/30 06:08:59;;;;;;;10.25;8.90;;;;;;;;;;5075218;28;20016;-80
2021/08/30 06:11:26;;;;;;;10.75;9.75;;;;;;;;;;5074909;28;20099;-79
2021/08/30 06:13:52;;;;;;;11.25;10.25;;;;;;;;;;5075218;28;20027;-82
2021/08/30 06:16:18;;;;;;;18.55;10.23;;;;;;;;;;5075650;28;20032;-80
2021/08/30 06:18:44;;;;;;;11.20;9.60;;;;;;;;;;5076144;28;20029;-81
2021/08/30 06:21:11;;;;;;;14.00;10.27;;;;;;;;;;5075817;28;20025;-79
2021/08/30 06:23:37;;;;;;;13.65;10.07;;;;;;;;;;5075792;28;20523;-78
2021/08/30 06:26:03;;;;;;;11.18;9.68;;;;;;;;;;5075968;28;20466;-78
2021/08/30 06:28:29;;;;;;;10.00;9.10;;;;;;;;;;5075852;28;20032;-76
2021/08/30 06:30:55;;;;;;;13.38;9.43;;;;;;;;;;5076054;28;20454;-82
2021/08/30 06:33:21;;;;;;;11.10;8.57;;;;;;;;;;5076127;28;20040;-76
2021/08/30 06:35:47;;;;;;;11.27;8.35;;;;;;;;;;5075990;28;20024;-79
2021/08/30 06:38:13;;;;;;;10.02;8.98;;;;;;;;;;5076032;28;20474;-80
2021/08/30 06:40:39;;;;;;;12.73;11.48;;;;;;;;;;5075666;28;20027;-80
2021/08/30 06:43:06;;;;;;;18.77;12.05;;;;;;;;;;5075513;28;20077;-80
2021/08/30 06:45:32;;;;;;;19.98;12.25;;;;;;;;;;5074496;28;20036;-84
2021/08/30 06:47:58;;;;;;;17.98;11.98;;;;;;;;;;5076891;28;20029;-81
2021/08/30 06:50:24;;;;;;;20.45;12.63;;;;;;;;;;5075160;28;20024;-83
2021/08/30 06:52:50;;;;;;;13.38;10.60;;;;;;;;;;5076201;28;20056;-80
2021/08/30 06:55:16;;;;;;;18.77;11.23;;;;;;;;;;5074451;28;20052;-79
2021/08/30 06:57:42;;;;;;;19.92;11.10;;;;;;;;;;5075014;28;20058;-84
2021/08/30 07:00:08;;;;;;;13.18;11.63;;;;;;;;;;5074621;28;20028;-79
2021/08/30 07:02:35;;;;;;;14.57;10.35;;;;;;;;;;5071529;28;20112;-88
2021/08/30 07:05:01;;;;;;;15.75;11.32;;;;;;;;;;5075720;28;20033;-86
2021/08/30 07:07:27;;;;;;;19.40;11.18;;;;;;;;;;5076103;28;20024;-84
2021/08/30 07:09:53;;;;;;;14.45;9.43;;;;;;;;;;5075951;28;20021;-80
2021/08/30 07:12:19;;;;;;;15.13;9.65;;;;;;;;;;5073526;28;20027;-82
2021/08/30 07:14:45;;;;;;;10.27;9.23;;;;;;;;;;5076974;28;20367;-80
2021/08/30 07:17:11;;;;;;;14.23;10.20;;;;;;;;;;5075183;28;20467;-84
2021/08/30 07:19:38;;;;;;;21.90;10.10;;;;;;;;;;5074868;28;20036;-85
2021/08/30 07:22:05;;;;;;;9.65;8.75;;;;;;;;;;5075062;28;20031;-85
2021/08/30 07:24:31;;;;;;;12.13;8.95;;;;;;;;;;5075454;28;20020;-93
2021/08/30 07:26:57;;;;;;;14.77;8.70;;;;;;;;;;5075813;28;20478;-85
2021/08/30 07:29:23;;;;;;;10.25;9.23;;;;;;;;;;5074864;28;20017;-82
2021/08/30 07:31:49;;;;;;;9.73;8.52;;;;;;;;;;5075569;28;20567;-88
2021/08/30 07:34:17;;;;;;;13.05;10.13;;;;;;;;;;5076145;28;20025;-92
2021/08/30 07:36:43;;;;;;;13.43;9.25;;;;;;;;;;5075585;28;20457;-82
2021/08/30 07:39:09;;;;;;;12.68;8.48;;;;;;;;;;5074525;28;20032;-82
2021/08/30 07:41:35;;;;;;;10.38;8.90;;;;;;;;;;5073886;28;20029;-80
2021/08/30 07:44:01;;;;;;;10.60;7.80;;;;;;;;;;5074476;28;20017;-81
2021/08/30 07:46:27;;;;;;;11.13;9.88;;;;;;;;;;5072661;28;20028;-82
2021/08/30 07:48:53;;;;;;;10.18;8.98;;;;;;;;;;5074216;28;20099;-80
2021/08/30 07:51:19;;;;;;;9.65;8.27;;;;;;;;;;5073898;28;20024;-82
2021/08/30 07:53:46;;;;;;;12.02;8.20;;;;;;;;;;5074577;28;20055;-82
2021/08/30 07:56:13;;;;;;;9.05;8.13;;;;;;;;;;5074822;28;20111;-83
2021/08/30 07:58:39;;;;;;;8.10;6.70;;;;;;;;;;5072683;28;20359;-80
2021/08/30 08:01:05;;;;;;;7.75;6.95;;;;;;;;;;5073138;28;20025;-85
2021/08/30 08:03:31;;;;;;;7.75;7.05;;;;;;;;;;5073731;28;20104;-81
2021/08/30 08:05:58;;;;;;;7.85;6.88;;;;;;;;;;5073158;28;20025;-80
2021/08/30 08:08:24;;;;;;;8.48;7.65;;;;;;;;;;5076260;28;20044;-87
2021/08/30 08:10:50;;;;;;;21.77;7.40;;;;;;;;;;5074280;28;20371;-79
2021/08/30 08:13:16;;;;;;;10.32;7.03;;;;;;;;;;5074200;28;20050;-78
2021/08/30 08:15:43;;;;;;;8.48;7.03;;;;;;;;;;5073383;28;20619;-80
2021/08/30 08:18:09;;;;;;;24.05;20.15;;;;;;;;;;5074022;28;20040;-78
2021/08/30 08:20:35;;;;;;;20.85;18.95;;;;;;;;;;5073431;28;20025;-77
2021/08/30 08:23:01;;;;;;;29.08;23.58;;;;;;;;;;5073982;28;20032;-82
2021/08/30 08:25:27;;;;;;;27.35;24.77;;;;;;;;;;5073057;28;20032;-79
2021/08/30 08:27:54;;;;;;;28.83;14.57;;;;;;;;;;5073804;28;20036;-78
2021/08/30 08:30:20;;;;;;;16.45;11.07;;;;;;;;;;5072764;28;20477;-77
2021/08/30 08:32:46;;;;;;;10.20;8.80;;;;;;;;;;5073822;28;20028;-82
2021/08/30 08:35:12;;;;;;;12.98;9.60;;;;;;;;;;5075286;28;20032;-82
2021/08/30 08:37:38;;;;;;;13.77;9.93;;;;;;;;;;5075911;28;20061;-77
2021/08/30 08:40:05;;;;;;;11.80;9.23;;;;;;;;;;5075037;28;20036;-78
2021/08/30 08:42:31;;;;;;;15.00;9.13;;;;;;;;;;5075187;28;20020;-82
2021/08/30 08:44:57;;;;;;;16.23;8.95;;;;;;;;;;5075765;28;20029;-83
2021/08/30 08:47:23;;;;;;;10.93;7.80;;;;;;;;;;5075443;28;20469;-83
2021/08/30 08:49:51;;;;;;;14.85;8.57;;;;;;;;;;5073231;28;20359;-83
2021/08/30 08:52:20;;;;;;;8.77;7.88;;;;;;;;;;5074050;28;20175;-90
2021/08/30 08:54:46;;;;;;;10.63;8.55;;;;;;;;;;5075505;28;20052;-83
2021/08/30 08:57:12;;;;;;;10.50;7.90;;;;;;;;;;5075674;28;20056;-82
2021/08/30 08:59:38;;;;;;;7.40;6.75;;;;;;;;;;5074868;28;20028;-79
2021/08/30 09:02:04;;;;;;;8.82;6.78;;;;;;;;;;5073444;28;20031;-78
2021/08/30 09:04:32;;;;;;;13.25;7.50;;;;;;;;;;5073844;28;20091;-80
2021/08/30 09:07:08;;;;;;;32.55;7.95;;;;;;;;;;5073537;28;20466;-81
2021/08/30 09:09:34;;;;;;;23.77;8.40;;;;;;;;;;5072315;28;20120;-79
2021/08/30 09:12:00;;;;;;;8.85;6.65;;;;;;;;;;5072778;28;20016;-79
2021/08/30 09:14:26;;;;;;;7.03;6.38;;;;;;;;;;5071916;28;20024;-81
2021/08/30 09:17:08;;;;;;;9.82;7.03;;;;;;;;;;5073615;28;20028;-83
2021/08/30 09:19:34;;;;;;;;;;;;;;;;;;5064199;28;20024;-79
2021/08/30 09:22:02;;;;;;;18.38;5.90;;;;;;;;;;5072307;28;19991;-79
2021/08/30 09:24:28;;;;;;;12.43;7.03;;;;;;;;;;5072025;28;20085;-75
2021/08/30 09:26:56;;;;;;;11.82;6.82;;;;;;;;;;5072927;28;20389;-76
2021/08/30 09:29:24;;;;;;;9.65;6.65;;;;;;;;;;5072555;28;20107;-79
2021/08/30 09:31:58;;;;;;;7.57;6.88;;;;;;;;;;5071542;28;20025;-76
2021/08/30 09:34:28;;;;;;;8.63;6.85;;;;;;;;;;5069843;28;20474;-75
2021/08/30 09:36:54;;;;;;;22.42;5.78;;;;;;;;;;5072056;28;20043;-77
2021/08/30 09:39:20;;;;;;;9.80;6.40;;;;;;;;;;5071919;28;20534;-77
2021/08/30 09:41:46;;;;;;;7.22;6.53;;;;;;;;;;5074965;28;20032;-80
2021/08/30 09:44:12;;;;;;;6.95;6.32;;;;;;;;;;5074180;28;20113;-78
2021/08/30 09:46:38;;;;;;;7.00;6.38;;;;;;;;;;5074985;28;20025;-78
2021/08/30 09:49:06;;;;;;;8.20;5.65;;;;;;;;;;5075052;28;20442;-79
2021/08/30 09:51:36;;;;;;;9.85;6.13;;;;;;;;;;5073420;28;20028;-76
2021/08/30 09:54:02;;;;;;;6.25;5.70;;;;;;;;;;5072586;28;20020;-80
2021/08/30 09:56:30;;;;;;;7.32;6.00;;;;;;;;;;5074181;28;20027;-78
2021/08/30 09:58:56;;;;;;;6.65;5.20;;;;;;;;;;5072783;28;20104;-78
2021/08/30 10:01:22;;;;;;;8.77;5.90;;;;;;;;;;5073157;28;20115;-77
2021/08/30 10:03:48;;;;;;;7.15;5.90;;;;;;;;;;5073524;28;20485;-79
2021/08/30 10:06:14;;;;;;;5.28;4.72;;;;;;;;;;5074832;28;20033;-79
2021/08/30 10:08:41;;;;;;;5.53;4.93;;;;;;;;;;5074614;28;20020;-79
2021/08/30 10:11:07;;;;;;;6.93;6.22;;;;;;;;;;5072203;28;20090;-81
2021/08/30 10:13:34;;;;;;;6.35;5.85;;;;;;;;;;5074271;28;20040;-80
2021/08/30 10:16:00;;;;;;;6.05;5.53;;;;;;;;;;5074609;28;20099;-78
2021/08/30 10:18:26;;;;;;;7.90;6.15;;;;;;;;;;5074134;28;20390;-76
2021/08/30 10:20:54;;;;;;;7.32;5.13;;;;;;;;;;5074640;28;20032;-77
2021/08/30 10:23:21;;;;;;;6.65;5.75;;;;;;;;;;5074395;28;20024;-77
2021/08/30 10:26:02;;;;;;;11.95;6.85;;;;;;;;;;5074462;28;20035;-78
2021/08/30 10:28:28;;;;;;;;;;;;;;;;;;5072050;28;20029;-78
2021/08/30 10:30:55;;;;;;;7.28;6.18;;;;;;;;;;5074044;28;20297;-79
2021/08/30 10:33:22;;;;;;;9.15;5.95;;;;;;;;;;5074242;28;20073;-77
2021/08/30 10:35:48;;;;;;;6.47;5.30;;;;;;;;;;5071759;28;20043;-83
2021/08/30 10:38:15;;;;;;;11.07;6.70;;;;;;;;;;5074689;28;20032;-78
2021/08/30 10:40:42;;;;;;;7.03;6.13;;;;;;;;;;5073978;28;20024;-76
2021/08/30 10:43:13;;;;;;;8.57;6.72;;;;;;;;;;5071477;28;20103;-78
2021/08/30 10:45:41;;;;;;;14.73;6.47;;;;;;;;;;5073843;28;20127;-87
2021/08/30 10:48:08;;;;;;;20.13;6.40;;;;;;;;;;5072054;28;20042;-87
2021/08/30 10:50:39;;;;;;;7.25;6.63;;;;;;;;;;5074211;28;20090;-83
2021/08/30 10:53:07;;;;;;;9.05;6.65;;;;;;;;;;5074166;28;20021;-81
2021/08/30 10:55:40;;;;;;;17.27;7.03;;;;;;;;;;5073326;28;20501;-85
2021/08/30 10:58:12;;;;;;;8.82;7.32;;;;;;;;;;5076581;28;20048;-87
2021/08/30 11:00:42;;;;;;;8.02;5.25;;;;;;;;;;5072526;28;20028;-78
2021/08/30 11:03:08;;;;;;;8.88;6.32;;;;;;;;;;5074248;28;20024;-85
2021/08/30 11:05:35;;;;;;;7.85;6.10;;;;;;;;;;5072947;28;20050;-86
2021/08/30 11:08:02;;;;;;;14.93;6.85;;;;;;;;;;5074577;28;20021;-87
2021/08/30 11:10:29;;;;;;;8.80;5.93;;;;;;;;;;5074222;28;20099;-83
2021/08/30 11:12:56;;;;;;;6.70;6.10;;;;;;;;;;5073447;28;20021;-82
2021/08/30 11:15:22;;;;;;;7.53;5.10;;;;;;;;;;5073037;28;20028;-90
2021/08/30 11:17:48;;;;;;;11.32;7.15;;;;;;;;;;5073367;28;20059;-82
2021/08/30 11:20:18;;;;;;;9.93;6.90;;;;;;;;;;5073058;28;20032;-83
2021/08/30 11:22:55;;;;;;;10.98;7.38;;;;;;;;;;5073859;28;20027;-84
2021/08/30 11:25:21;;;;;;;18.15;7.53;;;;;;;;;;5072171;28;20037;-84
2021/08/30 11:27:47;;;;;;;16.88;7.55;;;;;;;;;;5072699;28;20024;-83
2021/08/30 11:30:14;;;;;;;24.65;6.45;;;;;;;;;;5073649;28;20482;-83
2021/08/30 11:32:40;;;;;;;7.97;7.18;;;;;;;;;;5074108;28;20043;-84
2021/08/30 11:35:08;;;;;;;11.95;7.25;;;;;;;;;;5073872;28;20378;-82
2021/08/30 11:37:34;;;;;;;13.18;6.90;;;;;;;;;;5074362;28;20028;-82
2021/08/30 11:40:00;;;;;;;22.63;9.23;;;;;;;;;;5074243;28;20032;-82
2021/08/30 11:42:29;;;;;;;12.23;5.72;;;;;;;;;;5074461;28;20083;-85
2021/08/30 11:44:55;;;;;;;7.68;5.25;;;;;;;;;;5073792;28;20458;-81
2021/08/30 11:47:22;;;;;;;11.48;6.65;;;;;;;;;;5071895;28;20036;-82
2021/08/30 11:49:50;;;;;;;7.18;6.47;;;;;;;;;;5071401;28;20482;-86
2021/08/30 11:52:17;;;;;;;7.93;5.18;;;;;;;;;;5072237;28;20035;-87
2021/08/30 11:54:44;;;;;;;13.68;6.32;;;;;;;;;;5072282;28;20106;-83
2021/08/30 11:57:11;;;;;;;7.10;6.40;;;;;;;;;;5072400;28;20028;-88
2021/08/30 11:59:42;;;;;;;6.57;5.75;;;;;;;;;;5071823;28;20028;-84
2021/08/30 12:02:10;;;;;;;11.52;6.63;;;;;;;;;;5072775;28;20470;-90
2021/08/30 12:04:37;;;;;;;12.95;7.82;;;;;;;;;;5069142;28;20025;-85
2021/08/30 12:07:05;;;;;;;11.73;9.18;;;;;;;;;;5072024;28;20462;-86
2021/08/30 12:09:39;;;;;;;10.90;9.13;;;;;;;;;;5071876;28;20024;-85
2021/08/30 12:12:13;;;;;;;10.90;8.25;;;;;;;;;;5072229;28;20462;-85
2021/08/30 12:14:39;;;;;;;12.82;9.98;;;;;;;;;;5069902;28;20078;-86
2021/08/30 12:17:05;;;;;;;9.40;8.50;;;;;;;;;;5072264;28;20523;-84
2021/08/30 12:19:32;;;;;;;10.25;8.95;;;;;;;;;;5071584;28;20020;-86
2021/08/30 12:21:58;;;;;;;9.18;8.38;;;;;;;;;;5072135;28;20052;-84
2021/08/30 12:24:24;;;;;;;8.90;8.10;;;;;;;;;;5071807;28;20021;-86
2021/08/30 12:26:51;;;;;;;16.08;10.82;;;;;;;;;;5072290;28;20087;-82
2021/08/30 12:29:18;;;;;;;13.02;9.40;;;;;;;;;;5076045;28;20021;-84
2021/08/30 12:31:49;;;;;;;17.33;8.90;;;;;;;;;;5072241;28;20469;-82
2021/08/30 12:34:17;;;;;;;11.13;8.32;;;;;;;;;;5071670;28;20025;-83
2021/08/30 12:36:47;;;;;;;8.63;7.82;;;;;;;;;;5072183;28;20035;-86
2021/08/30 12:39:13;;;;;;;9.90;7.90;;;;;;;;;;5072093;28;20021;-81
2021/08/30 12:41:39;;;;;;;9.43;7.45;;;;;;;;;;5071529;28;20386;-81
2021/08/30 12:44:05;;;;;;;8.80;7.93;;;;;;;;;;5071750;28;20020;-84
2021/08/30 12:46:31;;;;;;;8.98;7.72;;;;;;;;;;5072072;28;20029;-84
2021/08/30 12:48:59;;;;;;;8.50;7.68;;;;;;;;;;5071463;28;20156;-83
2021/08/30 12:51:26;;;;;;;7.40;6.72;;;;;;;;;;5071674;28;20462;-80
2021/08/30 12:53:52;;;;;;;9.93;7.68;;;;;;;;;;5072020;28;20051;-83
2021/08/30 12:56:18;;;;;;;10.68;8.10;;;;;;;;;;5051320;28;20064;-81
2021/08/30 12:58:44;;;;;;;13.98;9.10;;;;;;;;;;5051454;28;20063;-84
2021/08/30 13:01:10;;;;;;;8.57;7.18;;;;;;;;;;5051157;28;20489;-83
2021/08/30 13:03:37;;;;;;;9.88;7.82;;;;;;;;;;5052526;28;20762;-82
2021/08/30 13:06:03;;;;;;;8.00;7.30;;;;;;;;;;5052273;28;20429;-83
2021/08/30 13:08:29;;;;;;;6.97;6.43;;;;;;;;;;5051803;28;20032;-84
2021/08/30 13:10:55;;;;;;;9.73;7.80;;;;;;;;;;5051919;28;20493;-81
2021/08/30 13:13:23;;;;;;;12.82;7.25;;;;;;;;;;5052426;28;20470;-91
2021/08/30 13:15:50;;;;;;;8.48;7.32;;;;;;;;;;5055096;28;20037;-87
2021/08/30 13:18:19;;;;;;;7.38;6.68;;;;;;;;;;5055842;28;20044;-90
2021/08/30 13:20:50;;;;;;;8.27;6.15;;;;;;;;;;5056056;28;20021;-91
2021/08/30 13:23:17;;;;;;;7.72;6.97;;;;;;;;;;5053732;28;20063;-86
2021/08/30 13:25:43;;;;;;;8.98;6.55;;;;;;;;;;5055706;28;20052;-81
2021/08/30 13:28:09;;;;;;;6.65;6.05;;;;;;;;;;5055600;28;20035;-86
2021/08/30 13:30:35;;;;;;;8.60;6.78;;;;;;;;;;5054859;28;20584;-82
2021/08/30 13:33:01;;;;;;;7.38;6.68;;;;;;;;;;5055547;28;20036;-82
2021/08/30 13:35:27;;;;;;;7.45;6.75;;;;;;;;;;5055625;28;20037;-82
2021/08/30 13:37:57;;;;;;;6.40;5.80;;;;;;;;;;5057008;28;20035;-86
2021/08/30 13:40:24;;;;;;;8.60;5.57;;;;;;;;;;5056364;28;20048;-79
2021/08/30 13:42:50;;;;;;;13.60;6.57;;;;;;;;;;5055996;28;20032;-96
2021/08/30 13:45:16;;;;;;;7.55;6.75;;;;;;;;;;5056521;28;20029;-82
2021/08/30 13:47:42;;;;;;;14.38;6.70;;;;;;;;;;5056797;28;20028;-79
2021/08/30 13:50:09;;;;;;;20.00;7.22;;;;;;;;;;5055347;28;20080;-84
2021/08/30 13:52:35;;;;;;;7.90;6.75;;;;;;;;;;5056740;28;20033;-81
2021/08/30 13:55:01;;;;;;;11.38;7.60;;;;;;;;;;5063151;28;20185;-81
2021/08/30 13:57:27;;;;;;;14.05;7.78;;;;;;;;;;5076332;28;20029;-80
2021/08/30 13:59:53;;;;;;;9.27;7.60;;;;;;;;;;5076894;28;20073;-80
2021/08/30 14:02:19;;;;;;;10.30;6.85;;;;;;;;;;5077375;28;20020;-82
2021/08/30 14:04:45;;;;;;;7.68;6.97;;;;;;;;;;5077425;28;20031;-78
2021/08/30 14:07:11;;;;;;;9.77;7.32;;;;;;;;;;5076596;28;20127;-82
2021/08/30 14:09:38;;;;;;;19.70;7.15;;;;;;;;;;5075963;28;20059;-81
2021/08/30 14:12:04;;;;;;;11.15;6.53;;;;;;;;;;5076563;28;20082;-88
2021/08/30 14:14:30;;;;;;;8.98;7.88;;;;;;;;;;5077968;28;20028;-86
2021/08/30 14:16:56;;;;;;;11.18;6.05;;;;;;;;;;5078286;28;20039;-84
2021/08/30 14:19:22;;;;;;;15.55;6.20;;;;;;;;;;5076643;28;20433;-86
2021/08/30 14:21:49;;;;;;;8.25;6.95;;;;;;;;;;5075556;28;20094;-84
2021/08/30 14:24:15;;;;;;;5.97;5.47;;;;;;;;;;5075614;28;20028;-86
2021/08/30 14:26:41;;;;;;;11.45;7.22;;;;;;;;;;5075800;28;20056;-84
2021/08/30 14:29:07;;;;;;;13.48;6.82;;;;;;;;;;5076078;28;20029;-86